sensor_id;sensor_type;location;lat;lon;timestamp;pressure;altitude;pressure_sealevel;temperature;humidity
9419;BME280;4748;50.802;7.132;2023-05-03T00:07:02;102168.56;;;7.23;100.00
9419;BME280;4748;50.802;7.132;2023-05-03T00:09:28;102171.06;;;7.24;100.00
9419;BME280;4748;50.802;7.132;2023-05-03T00:11:53;102165.75;;;7.24;100.00
9419;BME280;4748;50.802;7.132;2023-05-03T00:14:18;102164.25;;;7.30;100.00
9419;BME280;4748;50.802;7.132;2023-05-03T00:16:44;102161.88;;;7.19;100.00
9419;BME280;4748;50.802;7.132;2023-05-03T00:19:09;102162.81;;;7.02;100.00
9419;BME280;4748;50.802;7.132;2023-05-03T00:21:35;102162.97;;;7.01;100.00
9419;BME280;4748;50.802;7.132;2023-05-03T00:24:03;102155.19;;;7.07;100.00
9419;BME280;4748;50.802;7.132;2023-05-03T00:26:29;102161.28;;;7.00;100.00
9419;BME280;4748;50.802;7.132;2023-05-03T00:28:54;102158.78;;;6.90;100.00
9419;BME280;4748;50.802;7.132;2023-05-03T00:31:20;102161.16;;;7.01;100.00
9419;BME280;4748;50.802;7.132;2023-05-03T00:33:45;102149.00;;;6.99;100.00
9419;BME280;4748;50.802;7.132;2023-05-03T00:36:12;102151.44;;;6.84;100.00
9419;BME280;4748;50.802;7.132;2023-05-03T00:38:39;102153.41;;;6.82;100.00
9419;BME280;4748;50.802;7.132;2023-05-03T00:41:05;102149.75;;;6.83;100.00
9419;BME280;4748;50.802;7.132;2023-05-03T00:43:31;102157.06;;;6.81;100.00
9419;BME280;4748;50.802;7.132;2023-05-03T00:45:59;102158.00;;;6.72;100.00
9419;BME280;4748;50.802;7.132;2023-05-03T00:48:25;102153.00;;;6.69;100.00
9419;BME280;4748;50.802;7.132;2023-05-03T00:50:51;102158.47;;;6.68;100.00
9419;BME280;4748;50.802;7.132;2023-05-03T00:53:19;102159.78;;;6.64;100.00
9419;BME280;4748;50.802;7.132;2023-05-03T00:55:45;102162.13;;;6.67;100.00
9419;BME280;4748;50.802;7.132;2023-05-03T00:58:13;102150.81;;;6.65;100.00
9419;BME280;4748;50.802;7.132;2023-05-03T01:00:39;102158.28;;;6.61;100.00
9419;BME280;4748;50.802;7.132;2023-05-03T01:03:04;102159.91;;;6.55;100.00
9419;BME280;4748;50.802;7.132;2023-05-03T01:05:38;102160.56;;;6.57;100.00
9419;BME280;4748;50.802;7.132;2023-05-03T01:08:10;102164.34;;;6.46;100.00
9419;BME280;4748;50.802;7.132;2023-05-03T01:11:22;102167.34;;;6.51;100.00
9419;BME280;4748;50.802;7.132;2023-05-03T01:13:59;102165.16;;;6.47;100.00
9419;BME280;4748;50.802;7.132;2023-05-03T01:16:47;102164.97;;;6.40;100.00
9419;BME280;4748;50.802;7.132;2023-05-03T01:19:35;102170.88;;;6.34;100.00
9419;BME280;4748;50.802;7.132;2023-05-03T01:22:14;102160.94;;;6.36;100.00
9419;BME280;4748;50.802;7.132;2023-05-03T01:24:44;102167.41;;;6.34;100.00
9419;BME280;4748;50.802;7.132;2023-05-03T01:27:11;102165.06;;;6.31;100.00
9419;BME280;4748;50.802;7.132;2023-05-03T01:29:56;102161.34;;;6.24;100.00
9419;BME280;4748;50.802;7.132;2023-05-03T01:32:28;102157.72;;;6.25;100.00
9419;BME280;4748;50.802;7.132;2023-05-03T01:35:12;102164.47;;;6.19;100.00
9419;BME280;4748;50.802;7.132;2023-05-03T01:37:41;102160.69;;;6.22;100.00
9419;BME280;4748;50.802;7.132;2023-05-03T01:40:08;102161.13;;;6.17;100.00
9419;BME280;4748;50.802;7.132;2023-05-03T01:42:35;102159.09;;;6.11;100.00
9419;BME280;4748;50.802;7.132;2023-05-03T01:45:03;102164.03;;;6.07;100.00
9419;BME280;4748;50.802;7.132;2023-05-03T01:47:28;102167.59;;;5.98;100.00
9419;BME280;4748;50.802;7.132;2023-05-03T01:50:00;102165.78;;;5.98;100.00
9419;BME280;4748;50.802;7.132;2023-05-03T01:52:26;102168.59;;;5.97;100.00
9419;BME280;4748;50.802;7.132;2023-05-03T01:54:51;102166.63;;;5.99;100.00
9419;BME280;4748;50.802;7.132;2023-05-03T01:57:20;102165.09;;;5.96;100.00
9419;BME280;4748;50.802;7.132;2023-05-03T01:59:45;102163.44;;;5.95;100.00
9419;BME280;4748;50.802;7.132;2023-05-03T02:02:10;102166.41;;;5.92;100.00
9419;BME280;4748;50.802;7.132;2023-05-03T02:04:36;102172.75;;;5.64;100.00
9419;BME280;4748;50.802;7.132;2023-05-03T02:07:02;102170.13;;;5.82;100.00
9419;BME280;4748;50.802;7.132;2023-05-03T02:09:33;102174.91;;;5.78;100.00
9419;BME280;4748;50.802;7.132;2023-05-03T02:11:58;102176.94;;;5.67;100.00
9419;BME280;4748;50.802;7.132;2023-05-03T02:14:24;102180.81;;;5.72;100.00
9419;BME280;4748;50.802;7.132;2023-05-03T02:16:49;102178.16;;;5.72;100.00
9419;BME280;4748;50.802;7.132;2023-05-03T02:19:15;102183.09;;;5.41;100.00
9419;BME280;4748;50.802;7.132;2023-05-03T02:21:41;102178.50;;;5.43;100.00
9419;BME280;4748;50.802;7.132;2023-05-03T02:24:06;102171.22;;;5.45;100.00
9419;BME280;4748;50.802;7.132;2023-05-03T02:26:31;102179.47;;;5.42;100.00
9419;BME280;4748;50.802;7.132;2023-05-03T02:28:57;102183.56;;;5.54;100.00
9419;BME280;4748;50.802;7.132;2023-05-03T02:31:24;102189.28;;;5.58;100.00
9419;BME280;4748;50.802;7.132;2023-05-03T02:33:50;102189.28;;;5.58;100.00
9419;BME280;4748;50.802;7.132;2023-05-03T02:36:17;102195.41;;;5.59;100.00
9419;BME280;4748;50.802;7.132;2023-05-03T02:38:42;102192.47;;;5.62;100.00
9419;BME280;4748;50.802;7.132;2023-05-03T02:41:10;102205.75;;;5.62;100.00
9419;BME280;4748;50.802;7.132;2023-05-03T02:43:36;102192.75;;;5.59;100.00
9419;BME280;4748;50.802;7.132;2023-05-03T02:46:02;102202.56;;;5.58;100.00
9419;BME280;4748;50.802;7.132;2023-05-03T02:48:27;102203.25;;;5.60;100.00
9419;BME280;4748;50.802;7.132;2023-05-03T02:50:53;102200.88;;;5.57;100.00
9419;BME280;4748;50.802;7.132;2023-05-03T02:53:19;102204.66;;;5.55;100.00
9419;BME280;4748;50.802;7.132;2023-05-03T02:55:44;102194.34;;;5.52;100.00
9419;BME280;4748;50.802;7.132;2023-05-03T02:58:10;102203.16;;;5.53;100.00
9419;BME280;4748;50.802;7.132;2023-05-03T03:00:35;102199.75;;;5.43;100.00
9419;BME280;4748;50.802;7.132;2023-05-03T03:03:01;102201.69;;;5.41;100.00
9419;BME280;4748;50.802;7.132;2023-05-03T03:05:26;102202.84;;;5.38;100.00
9419;BME280;4748;50.802;7.132;2023-05-03T03:07:54;102193.38;;;5.26;100.00
9419;BME280;4748;50.802;7.132;2023-05-03T03:10:20;102198.56;;;5.28;100.00
9419;BME280;4748;50.802;7.132;2023-05-03T03:12:45;102192.47;;;5.18;100.00
9419;BME280;4748;50.802;7.132;2023-05-03T03:15:10;102190.22;;;5.23;100.00
9419;BME280;4748;50.802;7.132;2023-05-03T03:17:37;102185.41;;;5.00;100.00
9419;BME280;4748;50.802;7.132;2023-05-03T03:20:06;102189.31;;;5.05;100.00
9419;BME280;4748;50.802;7.132;2023-05-03T03:22:35;102186.66;;;5.05;100.00
9419;BME280;4748;50.802;7.132;2023-05-03T03:25:01;102183.41;;;5.11;100.00
9419;BME280;4748;50.802;7.132;2023-05-03T03:27:26;102176.03;;;5.05;100.00
9419;BME280;4748;50.802;7.132;2023-05-03T03:29:51;102181.47;;;5.13;100.00
9419;BME280;4748;50.802;7.132;2023-05-03T03:32:18;102177.66;;;5.15;100.00
9419;BME280;4748;50.802;7.132;2023-05-03T03:34:44;102188.41;;;5.14;100.00
9419;BME280;4748;50.802;7.132;2023-05-03T03:37:11;102183.31;;;5.03;100.00
9419;BME280;4748;50.802;7.132;2023-05-03T03:39:36;102176.22;;;4.94;100.00
9419;BME280;4748;50.802;7.132;2023-05-03T03:42:09;102176.53;;;4.91;100.00
9419;BME280;4748;50.802;7.132;2023-05-03T03:44:36;102179.47;;;4.88;100.00
9419;BME280;4748;50.802;7.132;2023-05-03T03:47:02;102170.91;;;4.94;100.00
9419;BME280;4748;50.802;7.132;2023-05-03T03:49:34;102177.91;;;4.95;100.00
9419;BME280;4748;50.802;7.132;2023-05-03T03:52:02;102176.78;;;4.98;100.00
9419;BME280;4748;50.802;7.132;2023-05-03T03:54:28;102178.31;;;5.00;100.00
9419;BME280;4748;50.802;7.132;2023-05-03T03:56:53;102179.47;;;4.88;100.00
9419;BME280;4748;50.802;7.132;2023-05-03T03:59:18;102170.69;;;4.88;100.00
9419;BME280;4748;50.802;7.132;2023-05-03T04:01:44;102170.03;;;4.76;100.00
9419;BME280;4748;50.802;7.132;2023-05-03T04:04:11;102159.88;;;4.72;100.00
9419;BME280;4748;50.802;7.132;2023-05-03T04:06:36;102160.81;;;4.80;100.00
9419;BME280;4748;50.802;7.132;2023-05-03T04:09:01;102162.31;;;4.83;100.00
9419;BME280;4748;50.802;7.132;2023-05-03T04:11:36;102159.81;;;4.81;100.00
9419;BME280;4748;50.802;7.132;2023-05-03T04:14:04;102156.94;;;4.65;100.00
9419;BME280;4748;50.802;7.132;2023-05-03T04:16:39;102161.66;;;4.71;100.00
9419;BME280;4748;50.802;7.132;2023-05-03T04:19:04;102155.13;;;4.66;100.00
9419;BME280;4748;50.802;7.132;2023-05-03T04:21:29;102156.91;;;4.75;100.00
9419;BME280;4748;50.802;7.132;2023-05-03T04:23:55;102154.91;;;4.86;100.00
9419;BME280;4748;50.802;7.132;2023-05-03T04:26:21;102159.81;;;4.81;100.00
9419;BME280;4748;50.802;7.132;2023-05-03T04:28:46;102160.00;;;4.70;100.00
9419;BME280;4748;50.802;7.132;2023-05-03T04:31:12;102143.34;;;4.87;100.00
9419;BME280;4748;50.802;7.132;2023-05-03T04:33:39;102152.78;;;4.90;100.00
9419;BME280;4748;50.802;7.132;2023-05-03T04:36:04;102151.06;;;4.98;100.00
9419;BME280;4748;50.802;7.132;2023-05-03T04:38:30;102144.66;;;5.01;100.00
9419;BME280;4748;50.802;7.132;2023-05-03T04:40:56;102139.31;;;5.10;100.00
9419;BME280;4748;50.802;7.132;2023-05-03T04:43:22;102139.16;;;5.11;100.00
9419;BME280;4748;50.802;7.132;2023-05-03T04:45:48;102140.94;;;5.11;100.00
9419;BME280;4748;50.802;7.132;2023-05-03T04:48:23;102146.22;;;5.20;100.00
9419;BME280;4748;50.802;7.132;2023-05-03T04:50:48;102143.72;;;5.19;100.00
9419;BME280;4748;50.802;7.132;2023-05-03T04:53:13;102151.38;;;5.22;100.00
9419;BME280;4748;50.802;7.132;2023-05-03T04:55:39;102158.88;;;5.26;100.00
9419;BME280;4748;50.802;7.132;2023-05-03T04:58:05;102169.47;;;5.36;100.00
9419;BME280;4748;50.802;7.132;2023-05-03T05:00:31;102169.31;;;5.55;100.00
9419;BME280;4748;50.802;7.132;2023-05-03T05:02:57;102170.16;;;5.55;100.00
9419;BME280;4748;50.802;7.132;2023-05-03T05:05:22;102180.56;;;5.66;100.00
9419;BME280;4748;50.802;7.132;2023-05-03T05:07:48;102178.09;;;5.82;100.00
9419;BME280;4748;50.802;7.132;2023-05-03T05:10:13;102186.38;;;6.13;100.00
9419;BME280;4748;50.802;7.132;2023-05-03T05:12:39;102188.47;;;6.10;100.00
9419;BME280;4748;50.802;7.132;2023-05-03T05:15:06;102194.81;;;6.34;100.00
9419;BME280;4748;50.802;7.132;2023-05-03T05:17:33;102201.69;;;6.62;100.00
9419;BME280;4748;50.802;7.132;2023-05-03T05:19:59;102202.91;;;7.01;100.00
9419;BME280;4748;50.802;7.132;2023-05-03T05:22:25;102201.56;;;7.38;100.00
9419;BME280;4748;50.802;7.132;2023-05-03T05:24:50;102198.72;;;8.04;100.00
9419;BME280;4748;50.802;7.132;2023-05-03T05:27:15;102205.25;;;8.41;100.00
9419;BME280;4748;50.802;7.132;2023-05-03T05:29:42;102205.91;;;8.59;100.00
9419;BME280;4748;50.802;7.132;2023-05-03T05:32:07;102215.84;;;8.97;100.00
9419;BME280;4748;50.802;7.132;2023-05-03T05:34:33;102208.97;;;9.02;100.00
9419;BME280;4748;50.802;7.132;2023-05-03T05:36:58;102219.38;;;9.73;100.00
9419;BME280;4748;50.802;7.132;2023-05-03T05:39:24;102211.03;;;9.30;100.00
9419;BME280;4748;50.802;7.132;2023-05-03T05:41:50;102210.88;;;9.92;100.00
9419;BME280;4748;50.802;7.132;2023-05-03T05:44:15;102212.53;;;10.23;100.00
9419;BME280;4748;50.802;7.132;2023-05-03T05:46:40;102218.31;;;9.82;100.00
9419;BME280;4748;50.802;7.132;2023-05-03T05:49:06;102225.81;;;10.54;100.00
9419;BME280;4748;50.802;7.132;2023-05-03T05:51:31;102227.09;;;10.21;100.00
9419;BME280;4748;50.802;7.132;2023-05-03T05:53:57;102235.66;;;9.94;100.00
9419;BME280;4748;50.802;7.132;2023-05-03T05:56:22;102233.56;;;9.74;100.00
9419;BME280;4748;50.802;7.132;2023-05-03T05:58:49;102242.91;;;9.48;100.00
9419;BME280;4748;50.802;7.132;2023-05-03T06:01:14;102235.97;;;9.61;100.00
9419;BME280;4748;50.802;7.132;2023-05-03T06:03:39;102245.41;;;9.79;100.00
9419;BME280;4748;50.802;7.132;2023-05-03T06:06:05;102247.16;;;9.65;100.00
9419;BME280;4748;50.802;7.132;2023-05-03T06:08:31;102238.84;;;9.52;100.00
9419;BME280;4748;50.802;7.132;2023-05-03T06:10:56;102239.53;;;9.84;100.00
9419;BME280;4748;50.802;7.132;2023-05-03T06:13:21;102239.59;;;9.38;100.00
9419;BME280;4748;50.802;7.132;2023-05-03T06:15:47;102245.78;;;9.68;100.00
9419;BME280;4748;50.802;7.132;2023-05-03T06:18:12;102239.44;;;9.69;100.00
9419;BME280;4748;50.802;7.132;2023-05-03T06:20:39;102233.63;;;9.96;100.00
9419;BME280;4748;50.802;7.132;2023-05-03T06:23:04;102240.03;;;9.87;100.00
9419;BME280;4748;50.802;7.132;2023-05-03T06:25:30;102240.31;;;9.92;100.00
9419;BME280;4748;50.802;7.132;2023-05-03T06:27:55;102238.22;;;10.10;100.00
9419;BME280;4748;50.802;7.132;2023-05-03T06:30:22;102237.59;;;9.70;100.00
9419;BME280;4748;50.802;7.132;2023-05-03T06:32:49;102248.41;;;10.15;100.00
9419;BME280;4748;50.802;7.132;2023-05-03T06:35:15;102248.13;;;10.24;100.00
9419;BME280;4748;50.802;7.132;2023-05-03T06:37:42;102239.88;;;10.33;100.00
9419;BME280;4748;50.802;7.132;2023-05-03T06:40:08;102251.22;;;10.58;100.00
9419;BME280;4748;50.802;7.132;2023-05-03T06:42:33;102252.25;;;10.57;100.00
9419;BME280;4748;50.802;7.132;2023-05-03T06:44:59;102256.66;;;10.27;100.00
9419;BME280;4748;50.802;7.132;2023-05-03T06:47:24;102259.56;;;10.63;100.00
9419;BME280;4748;50.802;7.132;2023-05-03T06:49:49;102248.47;;;10.66;100.00
9419;BME280;4748;50.802;7.132;2023-05-03T06:52:15;102257.13;;;11.04;100.00
9419;BME280;4748;50.802;7.132;2023-05-03T06:54:40;102248.00;;;11.27;100.00
9419;BME280;4748;50.802;7.132;2023-05-03T06:57:06;102252.63;;;11.19;100.00
9419;BME280;4748;50.802;7.132;2023-05-03T06:59:32;102253.63;;;11.32;100.00
9419;BME280;4748;50.802;7.132;2023-05-03T07:01:57;102257.81;;;11.64;100.00
9419;BME280;4748;50.802;7.132;2023-05-03T07:04:22;102254.53;;;11.82;100.00
9419;BME280;4748;50.802;7.132;2023-05-03T07:06:48;102252.16;;;12.08;100.00
9419;BME280;4748;50.802;7.132;2023-05-03T07:09:13;102253.13;;;12.22;100.00
9419;BME280;4748;50.802;7.132;2023-05-03T07:11:38;102242.38;;;12.42;100.00
9419;BME280;4748;50.802;7.132;2023-05-03T07:14:09;102238.25;;;12.46;100.00
9419;BME280;4748;50.802;7.132;2023-05-03T07:16:34;102239.41;;;12.17;100.00
9419;BME280;4748;50.802;7.132;2023-05-03T07:18:59;102236.44;;;12.26;100.00
9419;BME280;4748;50.802;7.132;2023-05-03T07:21:25;102235.53;;;12.40;100.00
9419;BME280;4748;50.802;7.132;2023-05-03T07:23:51;102236.97;;;12.63;100.00
9419;BME280;4748;50.802;7.132;2023-05-03T07:26:16;102236.66;;;12.73;100.00
9419;BME280;4748;50.802;7.132;2023-05-03T07:28:41;102235.13;;;12.64;100.00
9419;BME280;4748;50.802;7.132;2023-05-03T07:31:07;102252.47;;;12.61;100.00
9419;BME280;4748;50.802;7.132;2023-05-03T07:33:35;102229.47;;;13.00;100.00
9419;BME280;4748;50.802;7.132;2023-05-03T07:36:02;102229.88;;;12.76;100.00
9419;BME280;4748;50.802;7.132;2023-05-03T07:38:27;102220.91;;;13.24;100.00
9419;BME280;4748;50.802;7.132;2023-05-03T07:40:53;102218.19;;;13.24;100.00
9419;BME280;4748;50.802;7.132;2023-05-03T07:43:19;102211.78;;;13.65;100.00
9419;BME280;4748;50.802;7.132;2023-05-03T07:45:47;102213.34;;;13.40;99.08
9419;BME280;4748;50.802;7.132;2023-05-03T07:48:13;102211.72;;;13.52;99.17
9419;BME280;4748;50.802;7.132;2023-05-03T07:50:41;102207.72;;;13.95;98.84
9419;BME280;4748;50.802;7.132;2023-05-03T07:53:07;102195.13;;;14.02;98.28
9419;BME280;4748;50.802;7.132;2023-05-03T07:55:32;102190.84;;;14.14;98.71
9419;BME280;4748;50.802;7.132;2023-05-03T07:58:00;102182.75;;;14.20;99.31
9419;BME280;4748;50.802;7.132;2023-05-03T08:00:30;102189.41;;;14.37;96.27
9419;BME280;4748;50.802;7.132;2023-05-03T08:02:56;102194.81;;;14.30;96.74
9419;BME280;4748;50.802;7.132;2023-05-03T08:05:29;102188.16;;;14.46;94.82
9419;BME280;4748;50.802;7.132;2023-05-03T08:07:54;102187.31;;;14.45;91.83
9419;BME280;4748;50.802;7.132;2023-05-03T08:10:20;102187.13;;;14.53;93.52
9419;BME280;4748;50.802;7.132;2023-05-03T08:12:46;102178.81;;;14.68;93.12
9419;BME280;4748;50.802;7.132;2023-05-03T08:15:13;102169.09;;;14.41;86.84
9419;BME280;4748;50.802;7.132;2023-05-03T08:17:44;102174.28;;;14.62;93.80
9419;BME280;4748;50.802;7.132;2023-05-03T08:20:11;102168.44;;;14.78;88.47
9419;BME280;4748;50.802;7.132;2023-05-03T08:22:38;102177.31;;;14.97;91.63
9419;BME280;4748;50.802;7.132;2023-05-03T08:25:05;102172.28;;;15.14;89.46
9419;BME280;4748;50.802;7.132;2023-05-03T08:27:31;102170.88;;;15.11;88.55
9419;BME280;4748;50.802;7.132;2023-05-03T08:29:58;102181.00;;;15.29;90.39
9419;BME280;4748;50.802;7.132;2023-05-03T08:32:27;102170.59;;;15.32;89.17
9419;BME280;4748;50.802;7.132;2023-05-03T08:34:54;102175.41;;;15.24;85.46
9419;BME280;4748;50.802;7.132;2023-05-03T08:37:21;102175.50;;;15.48;85.70
9419;BME280;4748;50.802;7.132;2023-05-03T08:39:46;102172.22;;;15.46;86.82
9419;BME280;4748;50.802;7.132;2023-05-03T08:42:11;102173.94;;;15.34;84.74
9419;BME280;4748;50.802;7.132;2023-05-03T08:44:43;102172.06;;;15.34;80.04
9419;BME280;4748;50.802;7.132;2023-05-03T08:47:09;102161.72;;;15.69;86.72
9419;BME280;4748;50.802;7.132;2023-05-03T08:49:35;102159.22;;;15.67;84.50
9419;BME280;4748;50.802;7.132;2023-05-03T08:52:05;102161.06;;;15.73;80.66
9419;BME280;4748;50.802;7.132;2023-05-03T08:54:31;102155.06;;;15.71;83.38
9419;BME280;4748;50.802;7.132;2023-05-03T08:56:57;102146.59;;;15.92;84.88
9419;BME280;4748;50.802;7.132;2023-05-03T08:59:22;102147.88;;;15.89;81.59
9419;BME280;4748;50.802;7.132;2023-05-03T09:01:48;102143.16;;;15.85;81.86
9419;BME280;4748;50.802;7.132;2023-05-03T09:04:13;102150.94;;;15.99;82.81
9419;BME280;4748;50.802;7.132;2023-05-03T09:06:40;102149.19;;;16.11;75.86
9419;BME280;4748;50.802;7.132;2023-05-03T09:09:06;102138.50;;;16.23;79.13
9419;BME280;4748;50.802;7.132;2023-05-03T09:11:33;102148.16;;;16.12;83.13
9419;BME280;4748;50.802;7.132;2023-05-03T09:14:14;102139.97;;;16.25;74.33
9419;BME280;4748;50.802;7.132;2023-05-03T09:16:45;102133.44;;;16.33;74.05
9419;BME280;4748;50.802;7.132;2023-05-03T09:19:13;102138.63;;;16.34;74.04
9419;BME280;4748;50.802;7.132;2023-05-03T09:21:40;102139.59;;;16.15;76.40
9419;BME280;4748;50.802;7.132;2023-05-03T09:24:16;102137.34;;;15.82;70.99
9419;BME280;4748;50.802;7.132;2023-05-03T09:26:42;102142.66;;;16.19;77.91
9419;BME280;4748;50.802;7.132;2023-05-03T09:29:08;102140.97;;;15.63;67.16
9419;BME280;4748;50.802;7.132;2023-05-03T09:31:35;102137.09;;;15.89;74.82
9419;BME280;4748;50.802;7.132;2023-05-03T09:34:20;102134.28;;;15.72;62.36
9419;BME280;4748;50.802;7.132;2023-05-03T09:36:46;102127.09;;;15.90;73.80
9419;BME280;4748;50.802;7.132;2023-05-03T09:39:16;102128.56;;;16.23;76.01
9419;BME280;4748;50.802;7.132;2023-05-03T09:41:41;102121.38;;;16.35;75.71
9419;BME280;4748;50.802;7.132;2023-05-03T09:44:08;102121.97;;;16.37;71.80
9419;BME280;4748;50.802;7.132;2023-05-03T09:46:33;102119.91;;;16.57;75.49
9419;BME280;4748;50.802;7.132;2023-05-03T09:49:03;102117.25;;;16.75;75.19
9419;BME280;4748;50.802;7.132;2023-05-03T09:51:29;102117.31;;;16.68;75.94
9419;BME280;4748;50.802;7.132;2023-05-03T09:53:57;102121.94;;;16.86;73.51
9419;BME280;4748;50.802;7.132;2023-05-03T09:56:24;102114.81;;;16.49;69.91
9419;BME280;4748;50.802;7.132;2023-05-03T09:58:51;102123.53;;;16.27;69.24
9419;BME280;4748;50.802;7.132;2023-05-03T10:01:17;102112.66;;;16.33;72.31
9419;BME280;4748;50.802;7.132;2023-05-03T10:03:46;102100.69;;;16.65;66.78
9419;BME280;4748;50.802;7.132;2023-05-03T10:06:24;102099.03;;;16.64;66.86
9419;BME280;4748;50.802;7.132;2023-05-03T10:11:26;102099.56;;;16.54;63.14
9419;BME280;4748;50.802;7.132;2023-05-03T10:13:53;102102.47;;;16.53;66.16
9419;BME280;4748;50.802;7.132;2023-05-03T10:16:22;102102.94;;;16.26;64.94
9419;BME280;4748;50.802;7.132;2023-05-03T10:18:55;102100.78;;;16.34;58.11
9419;BME280;4748;50.802;7.132;2023-05-03T10:21:32;102095.16;;;16.35;61.68
9419;BME280;4748;50.802;7.132;2023-05-03T10:24:12;102093.34;;;16.72;60.58
9419;BME280;4748;50.802;7.132;2023-05-03T10:26:45;102093.34;;;16.89;62.76
9419;BME280;4748;50.802;7.132;2023-05-03T10:29:46;102089.13;;;16.58;55.64
9419;BME280;4748;50.802;7.132;2023-05-03T10:32:37;102080.19;;;16.75;56.88
9419;BME280;4748;50.802;7.132;2023-05-03T10:35:14;102070.34;;;16.63;60.61
9419;BME280;4748;50.802;7.132;2023-05-03T10:37:48;102058.41;;;16.70;68.78
9419;BME280;4748;50.802;7.132;2023-05-03T10:40:16;102071.84;;;16.94;66.95
9419;BME280;4748;50.802;7.132;2023-05-03T10:42:49;102059.47;;;16.87;64.39
9419;BME280;4748;50.802;7.132;2023-05-03T10:45:27;102066.13;;;16.67;63.48
9419;BME280;4748;50.802;7.132;2023-05-03T10:50:41;102059.91;;;17.02;64.97
9419;BME280;4748;50.802;7.132;2023-05-03T10:53:07;102063.66;;;17.01;65.25
9419;BME280;4748;50.802;7.132;2023-05-03T10:56:03;102050.16;;;17.12;62.28
9419;BME280;4748;50.802;7.132;2023-05-03T10:58:41;102051.66;;;17.44;62.05
9419;BME280;4748;50.802;7.132;2023-05-03T11:01:09;102048.75;;;17.57;67.12
9419;BME280;4748;50.802;7.132;2023-05-03T11:03:38;102039.81;;;17.56;66.71
9419;BME280;4748;50.802;7.132;2023-05-03T11:06:07;102046.63;;;17.59;66.28
9419;BME280;4748;50.802;7.132;2023-05-03T11:08:33;102041.94;;;17.66;65.85
9419;BME280;4748;50.802;7.132;2023-05-03T11:11:03;102037.47;;;17.71;66.12
9419;BME280;4748;50.802;7.132;2023-05-03T11:13:51;102029.78;;;17.57;59.48
9419;BME280;4748;50.802;7.132;2023-05-03T11:16:19;102028.91;;;17.86;64.86
9419;BME280;4748;50.802;7.132;2023-05-03T11:18:46;102042.97;;;18.05;64.15
9419;BME280;4748;50.802;7.132;2023-05-03T11:21:13;102031.53;;;17.92;65.03
9419;BME280;4748;50.802;7.132;2023-05-03T11:23:38;102020.31;;;18.11;62.71
9419;BME280;4748;50.802;7.132;2023-05-03T11:26:23;102030.81;;;17.96;62.94
9419;BME280;4748;50.802;7.132;2023-05-03T11:29:09;102032.38;;;18.15;64.69
9419;BME280;4748;50.802;7.132;2023-05-03T11:31:38;102031.09;;;18.18;63.23
9419;BME280;4748;50.802;7.132;2023-05-03T11:34:07;102032.00;;;18.12;60.00
9419;BME280;4748;50.802;7.132;2023-05-03T11:36:33;102026.50;;;18.18;61.22
9419;BME280;4748;50.802;7.132;2023-05-03T11:38:59;102018.81;;;18.15;62.64
9419;BME280;4748;50.802;7.132;2023-05-03T11:41:24;102023.19;;;18.16;62.15
9419;BME280;4748;50.802;7.132;2023-05-03T11:43:51;102020.72;;;18.26;62.12
9419;BME280;4748;50.802;7.132;2023-05-03T11:46:19;102021.44;;;18.22;59.72
9419;BME280;4748;50.802;7.132;2023-05-03T11:48:49;102010.47;;;18.17;59.16
9419;BME280;4748;50.802;7.132;2023-05-03T11:51:20;102014.91;;;18.11;57.99
9419;BME280;4748;50.802;7.132;2023-05-03T11:53:46;102005.88;;;18.17;61.75
9419;BME280;4748;50.802;7.132;2023-05-03T11:56:12;102004.47;;;18.15;58.69
9419;BME280;4748;50.802;7.132;2023-05-03T11:58:55;101995.38;;;18.21;53.23
9419;BME280;4748;50.802;7.132;2023-05-03T12:01:23;101998.44;;;18.36;60.45
9419;BME280;4748;50.802;7.132;2023-05-03T12:04:02;101995.28;;;18.27;53.85
9419;BME280;4748;50.802;7.132;2023-05-03T12:06:33;101990.44;;;18.18;56.99
9419;BME280;4748;50.802;7.132;2023-05-03T12:09:02;101992.28;;;18.06;58.71
9419;BME280;4748;50.802;7.132;2023-05-03T12:11:29;101997.38;;;18.25;61.98
9419;BME280;4748;50.802;7.132;2023-05-03T12:13:59;101996.78;;;18.23;57.89
9419;BME280;4748;50.802;7.132;2023-05-03T12:16:25;101986.28;;;18.15;58.51
9419;BME280;4748;50.802;7.132;2023-05-03T12:21:18;101974.16;;;18.29;58.45
9419;BME280;4748;50.802;7.132;2023-05-03T12:23:44;101975.75;;;18.53;59.13
9419;BME280;4748;50.802;7.132;2023-05-03T12:26:13;101977.41;;;18.08;59.62
9419;BME280;4748;50.802;7.132;2023-05-03T12:28:39;101963.06;;;18.31;59.20
9419;BME280;4748;50.802;7.132;2023-05-03T12:31:04;101969.53;;;18.41;58.43
9419;BME280;4748;50.802;7.132;2023-05-03T12:33:30;101958.66;;;18.52;57.75
9419;BME280;4748;50.802;7.132;2023-05-03T12:35:55;101951.84;;;18.50;57.57
9419;BME280;4748;50.802;7.132;2023-05-03T12:38:22;101962.84;;;18.21;56.01
9419;BME280;4748;50.802;7.132;2023-05-03T12:40:47;101956.69;;;18.25;57.98
9419;BME280;4748;50.802;7.132;2023-05-03T12:43:13;101948.97;;;18.56;57.66
9419;BME280;4748;50.802;7.132;2023-05-03T12:45:38;101944.19;;;18.36;57.32
9419;BME280;4748;50.802;7.132;2023-05-03T12:48:04;101950.78;;;18.28;57.86
9419;BME280;4748;50.802;7.132;2023-05-03T12:50:30;101936.97;;;18.41;55.66
9419;BME280;4748;50.802;7.132;2023-05-03T12:52:56;101937.38;;;18.61;56.08
9419;BME280;4748;50.802;7.132;2023-05-03T12:55:22;101936.09;;;18.63;53.89
9419;BME280;4748;50.802;7.132;2023-05-03T12:57:47;101925.31;;;18.80;54.01
9419;BME280;4748;50.802;7.132;2023-05-03T13:00:13;101926.44;;;18.84;52.76
9419;BME280;4748;50.802;7.132;2023-05-03T13:02:40;101929.09;;;19.06;53.57
9419;BME280;4748;50.802;7.132;2023-05-03T13:05:06;101916.47;;;19.00;54.65
9419;BME280;4748;50.802;7.132;2023-05-03T13:07:31;101916.03;;;18.92;54.80
9419;BME280;4748;50.802;7.132;2023-05-03T13:09:57;101911.69;;;18.91;52.52
9419;BME280;4748;50.802;7.132;2023-05-03T13:12:23;101899.41;;;18.89;52.95
9419;BME280;4748;50.802;7.132;2023-05-03T13:14:51;101890.97;;;18.74;50.06
9419;BME280;4748;50.802;7.132;2023-05-03T13:17:19;101891.47;;;18.98;53.10
9419;BME280;4748;50.802;7.132;2023-05-03T13:19:46;101883.22;;;19.21;53.63
9419;BME280;4748;50.802;7.132;2023-05-03T13:22:12;101882.47;;;19.09;49.58
9419;BME280;4748;50.802;7.132;2023-05-03T13:24:39;101879.19;;;19.24;54.04
9419;BME280;4748;50.802;7.132;2023-05-03T13:27:05;101871.72;;;18.87;51.25